Celtic Spirit — MSGH4 — position and weather

sailwx.info

Track history (hours):
 
Tides and Currents Weather Stations Pressure Air Temp Water Temp Dewpoint Dewpoint Depression Visibility Wind Speed Wind Dir Waves Ship Positions

Celtic Spirit

Last reported at 2016-Jul-21 11:14 UTC. Time now 2016-Jul-25 17:48 UTC.
Position N 51°27' W 009°50'.

Length 20 m.

Type: Pleasure craft. MMSI: 235010910.

Date/timePositionNaut miles runAvg speedWind from/ knotsBaromVisibWave heightAir tempDewpointWater temp
2016-Jul-21 11:14N 51°27' W 009°50'27 1.2
2016-Jul-20 12:14N 51°31' W 009°08'0 0.0
2016-Jul-20 08:33N 51°31' W 009°08'2 0.1
2016-Jul-19 18:27N 51°31' W 009°10'6 6.2
2016-Jul-19 17:33N 51°30' W 009°02'16 7.8
2016-Jul-19 15:33N 51°35' W 008°38'7 6.6
2016-Jul-19 14:33N 51°39' W 008°30'3 2.4
2016-Jul-19 13:24N 51°42' W 008°31'0 0.0
2016-Jul-19 12:33N 51°42' W 008°31'0 0.0
2016-Jul-19 11:33N 51°42' W 008°31'0 0.0
2016-Jul-19 10:24N 51°42' W 008°31'0 0.0
2016-Jul-19 09:30N 51°42' W 008°31'0 0.0
2016-Jul-19 08:24N 51°42' W 008°31'0 0.1
2016-Jul-19 07:30N 51°42' W 008°31'0 0.0
2016-Jul-19 04:33N 51°42' W 008°31'0 0.0
2016-Jul-19 03:30N 51°42' W 008°31'0 0.0
2016-Jul-19 02:30N 51°42' W 008°31'0 0.0
2016-Jul-19 01:30N 51°42' W 008°31'0 0.0
2016-Jul-19 00:30N 51°42' W 008°31'0 0.0
2016-Jul-18 23:27N 51°42' W 008°31'0 0.0
2016-Jul-18 22:33N 51°42' W 008°31'0 0.0
2016-Jul-18 21:30N 51°42' W 008°31'  
2016-Jul-13 21:28N 51°42' W 008°31'0 0.0
2016-Jul-13 20:22N 51°42' W 008°31'0 0.0
2016-Jul-13 19:16N 51°42' W 008°31'0 0.0
2016-Jul-13 18:31N 51°42' W 008°31'0 0.0
2016-Jul-13 17:22N 51°42' W 008°31'0 0.0
2016-Jul-13 16:31N 51°42' W 008°31'0 0.0
2016-Jul-13 15:31N 51°42' W 008°31'0 0.0
2016-Jul-13 14:25N 51°42' W 008°31'0 0.0
2016-Jul-13 13:31N 51°42' W 008°31'0 0.0
2016-Jul-13 12:31N 51°42' W 008°31'0 0.0
2016-Jul-13 11:22N 51°42' W 008°31'0 0.0
2016-Jul-13 10:31N 51°42' W 008°31'0 0.0
2016-Jul-13 09:28N 51°42' W 008°31'0 0.0
2016-Jul-13 08:22N 51°42' W 008°31'0 0.0
2016-Jul-13 07:28N 51°42' W 008°31'0 0.0
2016-Jul-13 06:31N 51°42' W 008°31'0 0.0
2016-Jul-13 05:31N 51°42' W 008°31'0 0.0
2016-Jul-13 04:25N 51°42' W 008°31'0 0.0
2016-Jul-13 03:28N 51°42' W 008°31'0 0.0
2016-Jul-13 02:31N 51°42' W 008°31'0 0.0
2016-Jul-13 01:31N 51°42' W 008°31'0 0.0
2016-Jul-13 00:28N 51°42' W 008°31'0 0.0
2016-Jul-12 23:31N 51°42' W 008°31'0 0.0
2016-Jul-12 22:31N 51°42' W 008°31'0 0.0
2016-Jul-12 21:28N 51°42' W 008°31'0 0.0
2016-Jul-12 20:25N 51°42' W 008°31'0 0.0
2016-Jul-12 19:31N 51°42' W 008°31'0 0.0
2016-Jul-12 18:28N 51°42' W 008°31'0 0.0
2016-Jul-12 17:28N 51°42' W 008°31'0 0.0
2016-Jul-12 16:31N 51°42' W 008°31'0 0.0
2016-Jul-12 15:31N 51°42' W 008°31'0 0.0
2016-Jul-12 14:31N 51°42' W 008°31'0 0.0
2016-Jul-12 13:28N 51°42' W 008°31'0 0.0
2016-Jul-12 12:31N 51°42' W 008°31'0 0.0
2016-Jul-12 11:28N 51°42' W 008°31'0 0.0
2016-Jul-12 10:22N 51°42' W 008°31'0 0.0
2016-Jul-12 09:28N 51°42' W 008°31'0 0.0
2016-Jul-12 08:13N 51°42' W 008°31'0 0.0
2016-Jul-12 07:25N 51°42' W 008°31'0 0.0
2016-Jul-12 06:31N 51°42' W 008°31'0 0.0
2016-Jul-12 05:31N 51°42' W 008°31'0 0.0
2016-Jul-12 04:28N 51°42' W 008°31'0 0.0
2016-Jul-12 03:31N 51°42' W 008°31'0 0.0
2016-Jul-12 02:28N 51°42' W 008°31'0 0.0
2016-Jul-12 01:25N 51°42' W 008°31'0 0.0
2016-Jul-12 00:31N 51°42' W 008°31'0 0.0
2016-Jul-11 23:31N 51°42' W 008°31'0 0.0
2016-Jul-11 21:31N 51°42' W 008°31'0 0.0
2016-Jul-11 19:28N 51°42' W 008°31'0 0.0
2016-Jul-11 18:28N 51°42' W 008°31'5 5.1
2016-Jul-11 17:33N 51°38' W 008°30'15 4.9
2016-Jul-11 14:33N 51°30' W 008°51'5 5.4
2016-Jul-11 13:33N 51°31' W 008°59'  
Track history (hours):
 
Tides and Currents Weather Stations Pressure Air Temp Water Temp Dewpoint Dewpoint Depression Visibility Wind Speed Wind Dir Waves Ship Positions

Celtic Spirit

Last reported at 2016-Jul-21 11:14 UTC. Time now 2016-Jul-25 17:48 UTC.
Position N 51°27' W 009°50'.

Length 20 m.

Type: Pleasure craft. MMSI: 235010910.

Date/timePositionNaut miles runAvg speedWind from/ knotsBaromVisibWave heightAir tempDewpointWater temp
2016-Jul-21 11:14N 51°27' W 009°50'27 1.2
2016-Jul-20 12:14N 51°31' W 009°08'0 0.0
2016-Jul-20 08:33N 51°31' W 009°08'2 0.1
2016-Jul-19 18:27N 51°31' W 009°10'6 6.2
2016-Jul-19 17:33N 51°30' W 009°02'16 7.8
2016-Jul-19 15:33N 51°35' W 008°38'7 6.6
2016-Jul-19 14:33N 51°39' W 008°30'3 2.4
2016-Jul-19 13:24N 51°42' W 008°31'0 0.0
2016-Jul-19 12:33N 51°42' W 008°31'0 0.0
2016-Jul-19 11:33N 51°42' W 008°31'0 0.0
2016-Jul-19 10:24N 51°42' W 008°31'0 0.0
2016-Jul-19 09:30N 51°42' W 008°31'0 0.0
2016-Jul-19 08:24N 51°42' W 008°31'0 0.1
2016-Jul-19 07:30N 51°42' W 008°31'0 0.0
2016-Jul-19 04:33N 51°42' W 008°31'0 0.0
2016-Jul-19 03:30N 51°42' W 008°31'0 0.0
2016-Jul-19 02:30N 51°42' W 008°31'0 0.0
2016-Jul-19 01:30N 51°42' W 008°31'0 0.0
2016-Jul-19 00:30N 51°42' W 008°31'0 0.0
2016-Jul-18 23:27N 51°42' W 008°31'0 0.0
2016-Jul-18 22:33N 51°42' W 008°31'0 0.0
2016-Jul-18 21:30N 51°42' W 008°31'  
2016-Jul-13 21:28N 51°42' W 008°31'0 0.0
2016-Jul-13 20:22N 51°42' W 008°31'0 0.0
2016-Jul-13 19:16N 51°42' W 008°31'0 0.0
2016-Jul-13 18:31N 51°42' W 008°31'0 0.0
2016-Jul-13 17:22N 51°42' W 008°31'0 0.0
2016-Jul-13 16:31N 51°42' W 008°31'0 0.0
2016-Jul-13 15:31N 51°42' W 008°31'0 0.0
2016-Jul-13 14:25N 51°42' W 008°31'0 0.0
2016-Jul-13 13:31N 51°42' W 008°31'0 0.0
2016-Jul-13 12:31N 51°42' W 008°31'0 0.0
2016-Jul-13 11:22N 51°42' W 008°31'0 0.0
2016-Jul-13 10:31N 51°42' W 008°31'0 0.0
2016-Jul-13 09:28N 51°42' W 008°31'0 0.0
2016-Jul-13 08:22N 51°42' W 008°31'0 0.0
2016-Jul-13 07:28N 51°42' W 008°31'0 0.0
2016-Jul-13 06:31N 51°42' W 008°31'0 0.0
2016-Jul-13 05:31N 51°42' W 008°31'0 0.0
2016-Jul-13 04:25N 51°42' W 008°31'0 0.0
2016-Jul-13 03:28N 51°42' W 008°31'0 0.0
2016-Jul-13 02:31N 51°42' W 008°31'0 0.0
2016-Jul-13 01:31N 51°42' W 008°31'0 0.0
2016-Jul-13 00:28N 51°42' W 008°31'0 0.0
2016-Jul-12 23:31N 51°42' W 008°31'0 0.0
2016-Jul-12 22:31N 51°42' W 008°31'0 0.0
2016-Jul-12 21:28N 51°42' W 008°31'0 0.0
2016-Jul-12 20:25N 51°42' W 008°31'0 0.0
2016-Jul-12 19:31N 51°42' W 008°31'0 0.0
2016-Jul-12 18:28N 51°42' W 008°31'0 0.0
2016-Jul-12 17:28N 51°42' W 008°31'0 0.0
2016-Jul-12 16:31N 51°42' W 008°31'0 0.0
2016-Jul-12 15:31N 51°42' W 008°31'0 0.0
2016-Jul-12 14:31N 51°42' W 008°31'0 0.0
2016-Jul-12 13:28N 51°42' W 008°31'0 0.0
2016-Jul-12 12:31N 51°42' W 008°31'0 0.0
2016-Jul-12 11:28N 51°42' W 008°31'0 0.0
2016-Jul-12 10:22N 51°42' W 008°31'0 0.0
2016-Jul-12 09:28N 51°42' W 008°31'0 0.0
2016-Jul-12 08:13N 51°42' W 008°31'0 0.0
2016-Jul-12 07:25N 51°42' W 008°31'0 0.0
2016-Jul-12 06:31N 51°42' W 008°31'0 0.0
2016-Jul-12 05:31N 51°42' W 008°31'0 0.0
2016-Jul-12 04:28N 51°42' W 008°31'0 0.0
2016-Jul-12 03:31N 51°42' W 008°31'0 0.0
2016-Jul-12 02:28N 51°42' W 008°31'0 0.0
2016-Jul-12 01:25N 51°42' W 008°31'0 0.0
2016-Jul-12 00:31N 51°42' W 008°31'0 0.0
2016-Jul-11 23:31N 51°42' W 008°31'0 0.0
2016-Jul-11 21:31N 51°42' W 008°31'0 0.0
2016-Jul-11 19:28N 51°42' W 008°31'0 0.0
2016-Jul-11 18:28N 51°42' W 008°31'5 5.1
2016-Jul-11 17:33N 51°38' W 008°30'15 4.9
2016-Jul-11 14:33N 51°30' W 008°51'5 5.4
2016-Jul-11 13:33N 51°31' W 008°59'  

Dump ship's entire track history